sensor_id;sensor_type;location;lat;lon;timestamp;P1;durP1;ratioP1;P2;durP2;ratioP2
5225;SDS011;2632;51.666;7.146;2023-03-01T00:02:26;9.50;;;6.20;;
5225;SDS011;2632;51.666;7.146;2023-03-01T00:04:53;11.30;;;6.97;;
5225;SDS011;2632;51.666;7.146;2023-03-01T00:07:19;10.60;;;6.60;;
5225;SDS011;2632;51.666;7.146;2023-03-01T00:09:46;13.47;;;6.90;;
5225;SDS011;2632;51.666;7.146;2023-03-01T00:12:13;12.37;;;6.73;;
5225;SDS011;2632;51.666;7.146;2023-03-01T00:14:39;11.73;;;6.80;;
5225;SDS011;2632;51.666;7.146;2023-03-01T00:17:06;13.27;;;7.17;;
5225;SDS011;2632;51.666;7.146;2023-03-01T00:19:33;12.50;;;7.47;;
5225;SDS011;2632;51.666;7.146;2023-03-01T00:21:59;10.60;;;6.60;;
5225;SDS011;2632;51.666;7.146;2023-03-01T00:24:26;11.60;;;7.20;;
5225;SDS011;2632;51.666;7.146;2023-03-01T00:26:53;10.23;;;6.50;;
5225;SDS011;2632;51.666;7.146;2023-03-01T00:29:24;12.83;;;7.00;;
5225;SDS011;2632;51.666;7.146;2023-03-01T00:31:51;10.43;;;6.73;;
5225;SDS011;2632;51.666;7.146;2023-03-01T00:34:18;13.23;;;7.10;;
5225;SDS011;2632;51.666;7.146;2023-03-01T00:36:45;11.73;;;6.73;;
5225;SDS011;2632;51.666;7.146;2023-03-01T00:39:13;13.77;;;6.83;;
5225;SDS011;2632;51.666;7.146;2023-03-01T00:41:41;13.20;;;6.50;;
5225;SDS011;2632;51.666;7.146;2023-03-01T00:44:08;12.17;;;7.70;;
5225;SDS011;2632;51.666;7.146;2023-03-01T00:46:35;14.90;;;7.90;;
5225;SDS011;2632;51.666;7.146;2023-03-01T00:49:02;19.00;;;9.10;;
5225;SDS011;2632;51.666;7.146;2023-03-01T00:51:30;15.23;;;8.50;;
5225;SDS011;2632;51.666;7.146;2023-03-01T00:53:59;13.93;;;7.20;;
5225;SDS011;2632;51.666;7.146;2023-03-01T00:56:27;13.20;;;8.20;;
5225;SDS011;2632;51.666;7.146;2023-03-01T00:58:56;14.87;;;8.37;;
5225;SDS011;2632;51.666;7.146;2023-03-01T01:01:25;21.13;;;7.97;;
5225;SDS011;2632;51.666;7.146;2023-03-01T01:04:01;13.90;;;8.33;;
5225;SDS011;2632;51.666;7.146;2023-03-01T01:06:30;14.10;;;7.30;;
5225;SDS011;2632;51.666;7.146;2023-03-01T01:08:59;18.07;;;7.60;;
5225;SDS011;2632;51.666;7.146;2023-03-01T01:11:27;11.00;;;7.00;;
5225;SDS011;2632;51.666;7.146;2023-03-01T01:13:55;13.63;;;7.10;;
5225;SDS011;2632;51.666;7.146;2023-03-01T01:16:24;13.00;;;7.77;;
5225;SDS011;2632;51.666;7.146;2023-03-01T01:18:51;14.70;;;7.70;;
5225;SDS011;2632;51.666;7.146;2023-03-01T01:21:19;15.20;;;7.30;;
5225;SDS011;2632;51.666;7.146;2023-03-01T01:23:48;12.70;;;7.73;;
5225;SDS011;2632;51.666;7.146;2023-03-01T01:26:16;11.60;;;7.23;;
5225;SDS011;2632;51.666;7.146;2023-03-01T01:28:45;13.10;;;6.97;;
5225;SDS011;2632;51.666;7.146;2023-03-01T01:31:14;12.17;;;7.27;;
5225;SDS011;2632;51.666;7.146;2023-03-01T01:33:40;11.53;;;6.93;;
5225;SDS011;2632;51.666;7.146;2023-03-01T01:36:07;12.17;;;7.10;;
5225;SDS011;2632;51.666;7.146;2023-03-01T01:38:35;14.20;;;7.97;;
5225;SDS011;2632;51.666;7.146;2023-03-01T01:41:04;13.17;;;7.07;;
5225;SDS011;2632;51.666;7.146;2023-03-01T01:43:34;13.73;;;7.13;;
5225;SDS011;2632;51.666;7.146;2023-03-01T01:46:07;15.53;;;7.43;;
5225;SDS011;2632;51.666;7.146;2023-03-01T01:49:00;17.30;;;7.50;;
5225;SDS011;2632;51.666;7.146;2023-03-01T01:51:33;15.87;;;7.30;;
5225;SDS011;2632;51.666;7.146;2023-03-01T01:56:55;13.17;;;7.63;;
5225;SDS011;2632;51.666;7.146;2023-03-01T01:59:24;12.27;;;6.90;;
5225;SDS011;2632;51.666;7.146;2023-03-01T02:01:54;14.43;;;7.30;;
5225;SDS011;2632;51.666;7.146;2023-03-01T02:04:21;12.50;;;6.40;;
5225;SDS011;2632;51.666;7.146;2023-03-01T02:06:53;12.40;;;7.20;;
5225;SDS011;2632;51.666;7.146;2023-03-01T02:09:26;12.20;;;6.87;;
5225;SDS011;2632;51.666;7.146;2023-03-01T02:11:53;15.57;;;7.27;;
5225;SDS011;2632;51.666;7.146;2023-03-01T02:14:20;9.63;;;6.53;;
5225;SDS011;2632;51.666;7.146;2023-03-01T02:16:47;12.23;;;6.93;;
5225;SDS011;2632;51.666;7.146;2023-03-01T02:19:20;11.10;;;6.53;;
5225;SDS011;2632;51.666;7.146;2023-03-01T02:22:02;13.83;;;6.80;;
5225;SDS011;2632;51.666;7.146;2023-03-01T02:27:40;15.10;;;7.47;;
5225;SDS011;2632;51.666;7.146;2023-03-01T02:30:15;13.20;;;6.57;;
5225;SDS011;2632;51.666;7.146;2023-03-01T02:32:42;13.20;;;6.90;;
5225;SDS011;2632;51.666;7.146;2023-03-01T02:35:12;14.40;;;7.37;;
5225;SDS011;2632;51.666;7.146;2023-03-01T02:37:42;13.37;;;6.90;;
5225;SDS011;2632;51.666;7.146;2023-03-01T02:40:13;16.43;;;7.40;;
5225;SDS011;2632;51.666;7.146;2023-03-01T02:42:45;11.87;;;6.77;;
5225;SDS011;2632;51.666;7.146;2023-03-01T02:45:17;12.43;;;7.07;;
5225;SDS011;2632;51.666;7.146;2023-03-01T02:47:44;15.70;;;7.53;;
5225;SDS011;2632;51.666;7.146;2023-03-01T02:50:12;14.90;;;6.73;;
5225;SDS011;2632;51.666;7.146;2023-03-01T02:55:29;17.87;;;9.47;;
5225;SDS011;2632;51.666;7.146;2023-03-01T02:57:56;20.93;;;8.93;;
5225;SDS011;2632;51.666;7.146;2023-03-01T03:00:26;13.80;;;7.97;;
5225;SDS011;2632;51.666;7.146;2023-03-01T03:02:59;14.87;;;8.13;;
5225;SDS011;2632;51.666;7.146;2023-03-01T03:05:26;14.17;;;8.20;;
5225;SDS011;2632;51.666;7.146;2023-03-01T03:07:57;15.30;;;7.80;;
5225;SDS011;2632;51.666;7.146;2023-03-01T03:10:28;13.63;;;6.97;;
5225;SDS011;2632;51.666;7.146;2023-03-01T03:12:58;18.07;;;7.50;;
5225;SDS011;2632;51.666;7.146;2023-03-01T03:15:27;13.53;;;8.00;;
5225;SDS011;2632;51.666;7.146;2023-03-01T03:17:55;13.90;;;7.50;;
5225;SDS011;2632;51.666;7.146;2023-03-01T03:20:25;18.23;;;8.43;;
5225;SDS011;2632;51.666;7.146;2023-03-01T03:22:54;13.50;;;7.40;;
5225;SDS011;2632;51.666;7.146;2023-03-01T03:25:25;15.80;;;7.97;;
5225;SDS011;2632;51.666;7.146;2023-03-01T03:27:53;14.67;;;7.27;;
5225;SDS011;2632;51.666;7.146;2023-03-01T03:30:24;14.23;;;7.80;;
5225;SDS011;2632;51.666;7.146;2023-03-01T03:32:52;13.40;;;7.00;;
5225;SDS011;2632;51.666;7.146;2023-03-01T03:35:20;14.73;;;7.23;;
5225;SDS011;2632;51.666;7.146;2023-03-01T03:38:11;15.40;;;8.23;;
5225;SDS011;2632;51.666;7.146;2023-03-01T03:40:45;16.07;;;7.37;;
5225;SDS011;2632;51.666;7.146;2023-03-01T03:43:18;15.93;;;7.70;;
5225;SDS011;2632;51.666;7.146;2023-03-01T03:45:46;16.13;;;8.30;;
5225;SDS011;2632;51.666;7.146;2023-03-01T03:48:15;14.73;;;7.73;;
5225;SDS011;2632;51.666;7.146;2023-03-01T03:50:46;14.20;;;7.60;;
5225;SDS011;2632;51.666;7.146;2023-03-01T03:53:14;14.10;;;7.27;;
5225;SDS011;2632;51.666;7.146;2023-03-01T03:55:41;14.67;;;7.30;;
5225;SDS011;2632;51.666;7.146;2023-03-01T03:58:09;13.33;;;7.70;;
5225;SDS011;2632;51.666;7.146;2023-03-01T04:00:40;9.83;;;7.00;;
5225;SDS011;2632;51.666;7.146;2023-03-01T04:03:08;15.63;;;8.00;;
5225;SDS011;2632;51.666;7.146;2023-03-01T04:05:36;17.17;;;8.03;;
5225;SDS011;2632;51.666;7.146;2023-03-01T04:08:03;23.30;;;7.87;;
5225;SDS011;2632;51.666;7.146;2023-03-01T04:10:34;12.63;;;7.13;;
5225;SDS011;2632;51.666;7.146;2023-03-01T04:13:05;17.50;;;7.83;;
5225;SDS011;2632;51.666;7.146;2023-03-01T04:15:33;22.47;;;8.63;;
5225;SDS011;2632;51.666;7.146;2023-03-01T04:18:00;17.87;;;8.27;;
5225;SDS011;2632;51.666;7.146;2023-03-01T04:20:28;13.63;;;7.40;;
5225;SDS011;2632;51.666;7.146;2023-03-01T04:22:59;15.17;;;7.70;;
5225;SDS011;2632;51.666;7.146;2023-03-01T04:25:47;14.03;;;7.60;;
5225;SDS011;2632;51.666;7.146;2023-03-01T04:28:24;15.93;;;8.57;;
5225;SDS011;2632;51.666;7.146;2023-03-01T04:30:55;18.90;;;8.20;;
5225;SDS011;2632;51.666;7.146;2023-03-01T04:33:23;17.97;;;8.50;;
5225;SDS011;2632;51.666;7.146;2023-03-01T04:35:51;13.57;;;8.07;;
5225;SDS011;2632;51.666;7.146;2023-03-01T04:38:18;15.00;;;7.70;;
5225;SDS011;2632;51.666;7.146;2023-03-01T04:40:47;14.67;;;7.90;;
5225;SDS011;2632;51.666;7.146;2023-03-01T04:43:13;14.37;;;7.67;;
5225;SDS011;2632;51.666;7.146;2023-03-01T04:45:40;13.30;;;7.70;;
5225;SDS011;2632;51.666;7.146;2023-03-01T04:48:08;13.13;;;7.33;;
5225;SDS011;2632;51.666;7.146;2023-03-01T04:50:34;18.13;;;7.93;;
5225;SDS011;2632;51.666;7.146;2023-03-01T04:53:01;12.87;;;6.60;;
5225;SDS011;2632;51.666;7.146;2023-03-01T04:55:28;15.23;;;7.60;;
5225;SDS011;2632;51.666;7.146;2023-03-01T04:57:55;13.70;;;7.50;;
5225;SDS011;2632;51.666;7.146;2023-03-01T05:00:22;17.97;;;8.27;;
5225;SDS011;2632;51.666;7.146;2023-03-01T05:02:59;14.03;;;7.93;;
5225;SDS011;2632;51.666;7.146;2023-03-01T05:05:27;14.43;;;7.60;;
5225;SDS011;2632;51.666;7.146;2023-03-01T05:07:58;13.77;;;8.17;;
5225;SDS011;2632;51.666;7.146;2023-03-01T05:10:27;14.97;;;8.00;;
5225;SDS011;2632;51.666;7.146;2023-03-01T05:12:56;14.03;;;8.17;;
5225;SDS011;2632;51.666;7.146;2023-03-01T05:15:24;16.27;;;8.00;;
5225;SDS011;2632;51.666;7.146;2023-03-01T05:17:53;15.93;;;8.73;;
5225;SDS011;2632;51.666;7.146;2023-03-01T05:20:20;18.43;;;8.20;;
5225;SDS011;2632;51.666;7.146;2023-03-01T05:22:49;15.63;;;8.97;;
5225;SDS011;2632;51.666;7.146;2023-03-01T05:25:21;16.60;;;9.30;;
5225;SDS011;2632;51.666;7.146;2023-03-01T05:27:48;16.80;;;8.70;;
5225;SDS011;2632;51.666;7.146;2023-03-01T05:30:14;17.30;;;8.60;;
5225;SDS011;2632;51.666;7.146;2023-03-01T05:32:42;18.00;;;9.10;;
5225;SDS011;2632;51.666;7.146;2023-03-01T05:35:14;16.87;;;8.43;;
5225;SDS011;2632;51.666;7.146;2023-03-01T05:37:44;15.77;;;8.30;;
5225;SDS011;2632;51.666;7.146;2023-03-01T05:40:13;13.37;;;7.63;;
5225;SDS011;2632;51.666;7.146;2023-03-01T05:42:46;20.07;;;8.37;;
5225;SDS011;2632;51.666;7.146;2023-03-01T05:45:15;20.27;;;9.23;;
5225;SDS011;2632;51.666;7.146;2023-03-01T05:47:43;19.20;;;9.87;;
5225;SDS011;2632;51.666;7.146;2023-03-01T05:50:14;22.00;;;10.43;;
5225;SDS011;2632;51.666;7.146;2023-03-01T05:52:48;16.97;;;9.20;;
5225;SDS011;2632;51.666;7.146;2023-03-01T05:55:17;23.90;;;9.90;;
5225;SDS011;2632;51.666;7.146;2023-03-01T05:57:45;20.20;;;10.43;;
5225;SDS011;2632;51.666;7.146;2023-03-01T06:00:13;20.63;;;9.00;;
5225;SDS011;2632;51.666;7.146;2023-03-01T06:02:41;19.67;;;10.03;;
5225;SDS011;2632;51.666;7.146;2023-03-01T06:05:08;18.80;;;10.03;;
5225;SDS011;2632;51.666;7.146;2023-03-01T06:07:36;18.43;;;10.20;;
5225;SDS011;2632;51.666;7.146;2023-03-01T06:10:04;18.60;;;8.53;;
5225;SDS011;2632;51.666;7.146;2023-03-01T06:12:32;20.23;;;8.60;;
5225;SDS011;2632;51.666;7.146;2023-03-01T06:15:00;20.77;;;9.53;;
5225;SDS011;2632;51.666;7.146;2023-03-01T06:17:31;17.47;;;9.47;;
5225;SDS011;2632;51.666;7.146;2023-03-01T06:20:03;15.53;;;8.87;;
5225;SDS011;2632;51.666;7.146;2023-03-01T06:22:31;17.30;;;9.00;;
5225;SDS011;2632;51.666;7.146;2023-03-01T06:24:58;23.13;;;10.40;;
5225;SDS011;2632;51.666;7.146;2023-03-01T06:27:25;18.77;;;9.20;;
5225;SDS011;2632;51.666;7.146;2023-03-01T06:29:51;19.67;;;9.10;;
5225;SDS011;2632;51.666;7.146;2023-03-01T06:32:18;15.53;;;9.00;;
5225;SDS011;2632;51.666;7.146;2023-03-01T06:34:45;20.83;;;9.50;;
5225;SDS011;2632;51.666;7.146;2023-03-01T06:37:11;17.30;;;9.50;;
5225;SDS011;2632;51.666;7.146;2023-03-01T06:39:38;19.87;;;10.53;;
5225;SDS011;2632;51.666;7.146;2023-03-01T06:42:05;17.90;;;9.57;;
5225;SDS011;2632;51.666;7.146;2023-03-01T06:44:33;19.57;;;10.07;;
5225;SDS011;2632;51.666;7.146;2023-03-01T06:46:59;20.57;;;11.00;;
5225;SDS011;2632;51.666;7.146;2023-03-01T06:49:26;18.17;;;10.23;;
5225;SDS011;2632;51.666;7.146;2023-03-01T06:51:53;20.67;;;10.37;;
5225;SDS011;2632;51.666;7.146;2023-03-01T06:54:19;18.83;;;10.47;;
5225;SDS011;2632;51.666;7.146;2023-03-01T06:56:48;18.70;;;10.33;;
5225;SDS011;2632;51.666;7.146;2023-03-01T06:59:16;20.97;;;10.90;;
5225;SDS011;2632;51.666;7.146;2023-03-01T07:01:43;17.33;;;10.07;;
5225;SDS011;2632;51.666;7.146;2023-03-01T07:04:10;22.47;;;10.67;;
5225;SDS011;2632;51.666;7.146;2023-03-01T07:06:37;18.50;;;10.63;;
5225;SDS011;2632;51.666;7.146;2023-03-01T07:09:04;23.47;;;10.33;;
5225;SDS011;2632;51.666;7.146;2023-03-01T07:11:30;17.40;;;9.10;;
5225;SDS011;2632;51.666;7.146;2023-03-01T07:13:57;32.93;;;12.33;;
5225;SDS011;2632;51.666;7.146;2023-03-01T07:16:24;71.10;;;15.60;;
5225;SDS011;2632;51.666;7.146;2023-03-01T07:18:51;41.97;;;10.77;;
5225;SDS011;2632;51.666;7.146;2023-03-01T07:21:17;21.83;;;10.23;;
5225;SDS011;2632;51.666;7.146;2023-03-01T07:23:46;30.27;;;10.37;;
5225;SDS011;2632;51.666;7.146;2023-03-01T07:26:13;140.90;;;21.90;;
5225;SDS011;2632;51.666;7.146;2023-03-01T07:28:40;59.87;;;14.73;;
5225;SDS011;2632;51.666;7.146;2023-03-01T07:31:07;18.90;;;8.80;;
5225;SDS011;2632;51.666;7.146;2023-03-01T07:33:33;20.50;;;9.10;;
5225;SDS011;2632;51.666;7.146;2023-03-01T07:36:01;12.90;;;7.70;;
5225;SDS011;2632;51.666;7.146;2023-03-01T07:38:29;18.50;;;8.40;;
5225;SDS011;2632;51.666;7.146;2023-03-01T07:41:00;13.80;;;7.40;;
5225;SDS011;2632;51.666;7.146;2023-03-01T07:43:29;15.53;;;8.53;;
5225;SDS011;2632;51.666;7.146;2023-03-01T07:46:00;16.80;;;8.43;;
5225;SDS011;2632;51.666;7.146;2023-03-01T07:48:27;17.07;;;8.87;;
5225;SDS011;2632;51.666;7.146;2023-03-01T07:50:59;19.13;;;8.60;;
5225;SDS011;2632;51.666;7.146;2023-03-01T07:53:26;17.30;;;8.83;;
5225;SDS011;2632;51.666;7.146;2023-03-01T07:56:06;16.30;;;7.70;;
5225;SDS011;2632;51.666;7.146;2023-03-01T07:58:45;11.67;;;7.40;;
5225;SDS011;2632;51.666;7.146;2023-03-01T08:01:16;14.50;;;8.27;;
5225;SDS011;2632;51.666;7.146;2023-03-01T08:03:44;13.43;;;7.43;;
5225;SDS011;2632;51.666;7.146;2023-03-01T08:06:12;13.30;;;7.50;;
5225;SDS011;2632;51.666;7.146;2023-03-01T08:08:40;10.83;;;7.73;;
5225;SDS011;2632;51.666;7.146;2023-03-01T08:11:07;12.60;;;8.10;;
5225;SDS011;2632;51.666;7.146;2023-03-01T08:13:36;12.17;;;8.30;;
5225;SDS011;2632;51.666;7.146;2023-03-01T08:16:03;13.30;;;7.63;;
5225;SDS011;2632;51.666;7.146;2023-03-01T08:18:32;15.77;;;7.87;;
5225;SDS011;2632;51.666;7.146;2023-03-01T08:21:05;13.07;;;8.10;;
5225;SDS011;2632;51.666;7.146;2023-03-01T08:23:33;15.90;;;7.63;;
5225;SDS011;2632;51.666;7.146;2023-03-01T08:26:04;10.80;;;6.93;;
5225;SDS011;2632;51.666;7.146;2023-03-01T08:28:38;15.63;;;7.90;;
5225;SDS011;2632;51.666;7.146;2023-03-01T08:33:42;14.43;;;7.47;;
5225;SDS011;2632;51.666;7.146;2023-03-01T08:36:09;12.77;;;7.60;;
5225;SDS011;2632;51.666;7.146;2023-03-01T08:38:36;16.37;;;7.70;;
5225;SDS011;2632;51.666;7.146;2023-03-01T08:41:03;12.50;;;7.63;;
5225;SDS011;2632;51.666;7.146;2023-03-01T08:43:30;11.37;;;6.83;;
5225;SDS011;2632;51.666;7.146;2023-03-01T08:45:57;11.40;;;6.90;;
5225;SDS011;2632;51.666;7.146;2023-03-01T08:48:24;15.10;;;8.60;;
5225;SDS011;2632;51.666;7.146;2023-03-01T08:50:53;12.70;;;7.70;;
5225;SDS011;2632;51.666;7.146;2023-03-01T08:53:19;10.77;;;7.20;;
5225;SDS011;2632;51.666;7.146;2023-03-01T08:55:46;11.03;;;7.10;;
5225;SDS011;2632;51.666;7.146;2023-03-01T08:58:15;13.40;;;7.20;;
5225;SDS011;2632;51.666;7.146;2023-03-01T09:00:42;13.50;;;7.50;;
5225;SDS011;2632;51.666;7.146;2023-03-01T09:03:08;12.63;;;7.03;;
5225;SDS011;2632;51.666;7.146;2023-03-01T09:05:35;11.60;;;7.50;;
5225;SDS011;2632;51.666;7.146;2023-03-01T09:08:02;12.77;;;7.00;;
5225;SDS011;2632;51.666;7.146;2023-03-01T09:10:29;9.97;;;6.93;;
5225;SDS011;2632;51.666;7.146;2023-03-01T09:12:56;9.00;;;6.90;;
5225;SDS011;2632;51.666;7.146;2023-03-01T09:15:23;16.00;;;7.50;;
5225;SDS011;2632;51.666;7.146;2023-03-01T09:17:49;14.87;;;7.27;;
5225;SDS011;2632;51.666;7.146;2023-03-01T09:20:16;12.43;;;6.70;;
5225;SDS011;2632;51.666;7.146;2023-03-01T09:22:42;11.17;;;7.00;;
5225;SDS011;2632;51.666;7.146;2023-03-01T09:25:09;8.63;;;6.33;;
5225;SDS011;2632;51.666;7.146;2023-03-01T09:27:36;11.37;;;6.13;;
5225;SDS011;2632;51.666;7.146;2023-03-01T09:30:03;10.47;;;6.03;;
5225;SDS011;2632;51.666;7.146;2023-03-01T09:32:30;10.73;;;7.03;;
5225;SDS011;2632;51.666;7.146;2023-03-01T09:34:57;10.63;;;7.00;;
5225;SDS011;2632;51.666;7.146;2023-03-01T09:37:27;9.87;;;5.60;;
5225;SDS011;2632;51.666;7.146;2023-03-01T09:39:53;10.00;;;6.70;;
5225;SDS011;2632;51.666;7.146;2023-03-01T09:42:20;9.50;;;6.00;;
5225;SDS011;2632;51.666;7.146;2023-03-01T09:45:06;9.90;;;6.10;;
5225;SDS011;2632;51.666;7.146;2023-03-01T09:47:47;10.77;;;6.33;;
5225;SDS011;2632;51.666;7.146;2023-03-01T09:50:18;9.13;;;5.90;;
5225;SDS011;2632;51.666;7.146;2023-03-01T10:01:10;9.30;;;5.80;;
5225;SDS011;2632;51.666;7.146;2023-03-01T10:03:43;10.00;;;6.23;;
5225;SDS011;2632;51.666;7.146;2023-03-01T10:06:15;8.07;;;5.50;;
5225;SDS011;2632;51.666;7.146;2023-03-01T10:09:13;7.50;;;5.23;;
5225;SDS011;2632;51.666;7.146;2023-03-01T10:11:44;9.33;;;5.10;;
5225;SDS011;2632;51.666;7.146;2023-03-01T10:17:08;8.90;;;5.43;;
5225;SDS011;2632;51.666;7.146;2023-03-01T10:19:53;9.13;;;5.47;;
5225;SDS011;2632;51.666;7.146;2023-03-01T10:22:24;15.33;;;5.67;;
5225;SDS011;2632;51.666;7.146;2023-03-01T10:24:56;7.93;;;5.73;;
5225;SDS011;2632;51.666;7.146;2023-03-01T10:27:25;7.33;;;5.10;;
5225;SDS011;2632;51.666;7.146;2023-03-01T10:30:05;11.23;;;5.30;;
5225;SDS011;2632;51.666;7.146;2023-03-01T10:32:37;9.43;;;5.47;;
5225;SDS011;2632;51.666;7.146;2023-03-01T10:35:24;8.70;;;5.53;;
5225;SDS011;2632;51.666;7.146;2023-03-01T10:38:12;8.50;;;6.33;;
5225;SDS011;2632;51.666;7.146;2023-03-01T10:40:50;9.57;;;5.90;;
5225;SDS011;2632;51.666;7.146;2023-03-01T10:43:20;7.90;;;5.10;;
5225;SDS011;2632;51.666;7.146;2023-03-01T10:45:48;11.20;;;6.23;;
5225;SDS011;2632;51.666;7.146;2023-03-01T10:48:22;9.47;;;6.23;;
5225;SDS011;2632;51.666;7.146;2023-03-01T10:58:34;8.60;;;6.20;;
5225;SDS011;2632;51.666;7.146;2023-03-01T11:03:41;9.43;;;6.13;;
5225;SDS011;2632;51.666;7.146;2023-03-01T11:08:44;8.93;;;5.97;;
5225;SDS011;2632;51.666;7.146;2023-03-01T11:11:14;8.73;;;5.63;;
5225;SDS011;2632;51.666;7.146;2023-03-01T11:16:31;9.70;;;6.33;;
5225;SDS011;2632;51.666;7.146;2023-03-01T11:19:12;8.33;;;5.60;;
5225;SDS011;2632;51.666;7.146;2023-03-01T11:21:52;9.33;;;6.13;;
5225;SDS011;2632;51.666;7.146;2023-03-01T11:24:26;7.87;;;5.37;;
5225;SDS011;2632;51.666;7.146;2023-03-01T11:27:00;11.47;;;6.37;;
5225;SDS011;2632;51.666;7.146;2023-03-01T11:29:37;10.63;;;6.10;;
5225;SDS011;2632;51.666;7.146;2023-03-01T11:32:14;9.03;;;5.73;;
5225;SDS011;2632;51.666;7.146;2023-03-01T11:34:49;11.40;;;6.30;;
5225;SDS011;2632;51.666;7.146;2023-03-01T11:37:26;8.90;;;6.23;;
5225;SDS011;2632;51.666;7.146;2023-03-01T11:40:12;8.90;;;5.97;;
5225;SDS011;2632;51.666;7.146;2023-03-01T11:45:43;10.37;;;6.30;;
5225;SDS011;2632;51.666;7.146;2023-03-01T11:51:23;10.20;;;5.87;;
5225;SDS011;2632;51.666;7.146;2023-03-01T12:05:17;10.17;;;6.50;;
5225;SDS011;2632;51.666;7.146;2023-03-01T12:10:52;10.00;;;6.50;;
5225;SDS011;2632;51.666;7.146;2023-03-01T12:16:23;10.63;;;6.00;;
5225;SDS011;2632;51.666;7.146;2023-03-01T12:22:40;10.10;;;6.07;;
5225;SDS011;2632;51.666;7.146;2023-03-01T12:28:02;9.37;;;6.43;;
5225;SDS011;2632;51.666;7.146;2023-03-01T12:44:35;16.73;;;6.30;;
5225;SDS011;2632;51.666;7.146;2023-03-01T12:50:02;9.00;;;5.77;;
5225;SDS011;2632;51.666;7.146;2023-03-01T12:52:44;9.97;;;6.00;;
5225;SDS011;2632;51.666;7.146;2023-03-01T12:55:31;9.90;;;5.97;;
5225;SDS011;2632;51.666;7.146;2023-03-01T12:58:01;9.90;;;6.00;;
5225;SDS011;2632;51.666;7.146;2023-03-01T13:00:37;11.87;;;6.43;;
5225;SDS011;2632;51.666;7.146;2023-03-01T13:03:38;10.43;;;6.77;;
5225;SDS011;2632;51.666;7.146;2023-03-01T13:12:03;13.37;;;7.00;;
5225;SDS011;2632;51.666;7.146;2023-03-01T13:14:50;12.13;;;6.80;;
5225;SDS011;2632;51.666;7.146;2023-03-01T13:17:31;11.30;;;6.60;;
5225;SDS011;2632;51.666;7.146;2023-03-01T13:19:59;14.60;;;8.07;;
5225;SDS011;2632;51.666;7.146;2023-03-01T13:22:28;13.17;;;7.60;;
5225;SDS011;2632;51.666;7.146;2023-03-01T13:25:01;13.07;;;7.10;;
5225;SDS011;2632;51.666;7.146;2023-03-01T13:27:39;11.93;;;7.10;;
5225;SDS011;2632;51.666;7.146;2023-03-01T13:30:12;14.67;;;7.33;;
5225;SDS011;2632;51.666;7.146;2023-03-01T13:35:49;11.23;;;7.27;;
5225;SDS011;2632;51.666;7.146;2023-03-01T13:49:28;14.70;;;7.10;;
5225;SDS011;2632;51.666;7.146;2023-03-01T13:54:59;13.87;;;7.70;;
5225;SDS011;2632;51.666;7.146;2023-03-01T13:57:30;16.97;;;8.73;;
5225;SDS011;2632;51.666;7.146;2023-03-01T14:00:00;12.50;;;7.20;;
5225;SDS011;2632;51.666;7.146;2023-03-01T14:02:27;14.20;;;7.57;;
5225;SDS011;2632;51.666;7.146;2023-03-01T14:04:59;9.97;;;6.23;;
5225;SDS011;2632;51.666;7.146;2023-03-01T14:07:27;13.60;;;7.00;;
5225;SDS011;2632;51.666;7.146;2023-03-01T14:10:03;11.07;;;6.80;;
5225;SDS011;2632;51.666;7.146;2023-03-01T14:15:06;11.53;;;6.63;;
5225;SDS011;2632;51.666;7.146;2023-03-01T14:20:09;8.30;;;5.80;;
5225;SDS011;2632;51.666;7.146;2023-03-01T14:22:43;13.37;;;6.87;;
5225;SDS011;2632;51.666;7.146;2023-03-01T14:25:54;9.90;;;6.50;;
5225;SDS011;2632;51.666;7.146;2023-03-01T14:28:13;10.73;;;6.40;;
5225;SDS011;2632;51.666;7.146;2023-03-01T14:30:50;11.60;;;6.30;;
5225;SDS011;2632;51.666;7.146;2023-03-01T14:33:24;9.20;;;6.40;;
5225;SDS011;2632;51.666;7.146;2023-03-01T14:38:41;16.10;;;7.13;;
5225;SDS011;2632;51.666;7.146;2023-03-01T14:43:55;14.97;;;7.40;;
5225;SDS011;2632;51.666;7.146;2023-03-01T14:46:32;11.30;;;6.30;;
5225;SDS011;2632;51.666;7.146;2023-03-01T14:49:02;12.60;;;7.53;;
5225;SDS011;2632;51.666;7.146;2023-03-01T14:51:36;12.27;;;6.27;;
5225;SDS011;2632;51.666;7.146;2023-03-01T14:54:10;11.03;;;6.53;;
5225;SDS011;2632;51.666;7.146;2023-03-01T14:56:48;13.00;;;7.07;;
5225;SDS011;2632;51.666;7.146;2023-03-01T14:59:19;9.50;;;6.40;;
5225;SDS011;2632;51.666;7.146;2023-03-01T15:01:48;11.43;;;6.30;;
5225;SDS011;2632;51.666;7.146;2023-03-01T15:04:15;11.87;;;7.10;;
5225;SDS011;2632;51.666;7.146;2023-03-01T15:06:43;10.70;;;6.70;;
5225;SDS011;2632;51.666;7.146;2023-03-01T15:09:12;13.43;;;7.10;;
5225;SDS011;2632;51.666;7.146;2023-03-01T15:11:42;15.10;;;6.90;;
5225;SDS011;2632;51.666;7.146;2023-03-01T15:14:25;10.27;;;6.20;;
5225;SDS011;2632;51.666;7.146;2023-03-01T15:16:54;10.70;;;6.80;;
5225;SDS011;2632;51.666;7.146;2023-03-01T15:19:21;13.70;;;7.60;;
5225;SDS011;2632;51.666;7.146;2023-03-01T15:21:53;10.20;;;6.63;;
5225;SDS011;2632;51.666;7.146;2023-03-01T15:24:23;11.57;;;6.67;;
5225;SDS011;2632;51.666;7.146;2023-03-01T15:26:52;10.77;;;6.23;;
5225;SDS011;2632;51.666;7.146;2023-03-01T15:29:24;10.20;;;6.23;;
5225;SDS011;2632;51.666;7.146;2023-03-01T15:32:00;13.37;;;7.37;;
5225;SDS011;2632;51.666;7.146;2023-03-01T15:34:31;16.20;;;9.97;;
5225;SDS011;2632;51.666;7.146;2023-03-01T15:36:59;14.90;;;8.63;;
5225;SDS011;2632;51.666;7.146;2023-03-01T15:42:13;12.60;;;7.20;;
5225;SDS011;2632;51.666;7.146;2023-03-01T15:47:47;11.20;;;7.30;;
5225;SDS011;2632;51.666;7.146;2023-03-01T15:50:21;10.70;;;6.00;;
5225;SDS011;2632;51.666;7.146;2023-03-01T15:52:50;10.17;;;5.83;;
5225;SDS011;2632;51.666;7.146;2023-03-01T15:55:19;8.23;;;5.00;;
5225;SDS011;2632;51.666;7.146;2023-03-01T15:57:48;10.90;;;5.40;;
5225;SDS011;2632;51.666;7.146;2023-03-01T16:00:16;12.00;;;6.20;;
5225;SDS011;2632;51.666;7.146;2023-03-01T16:02:43;12.70;;;7.37;;
5225;SDS011;2632;51.666;7.146;2023-03-01T16:07:45;10.50;;;6.53;;
5225;SDS011;2632;51.666;7.146;2023-03-01T16:10:11;11.07;;;6.27;;
5225;SDS011;2632;51.666;7.146;2023-03-01T16:12:39;13.73;;;7.60;;
5225;SDS011;2632;51.666;7.146;2023-03-01T16:15:13;17.50;;;8.33;;
5225;SDS011;2632;51.666;7.146;2023-03-01T16:17:42;19.03;;;9.67;;
5225;SDS011;2632;51.666;7.146;2023-03-01T16:20:09;18.27;;;8.10;;
5225;SDS011;2632;51.666;7.146;2023-03-01T16:22:48;23.90;;;10.47;;
5225;SDS011;2632;51.666;7.146;2023-03-01T16:25:16;11.30;;;6.43;;
5225;SDS011;2632;51.666;7.146;2023-03-01T16:27:44;11.37;;;5.97;;
5225;SDS011;2632;51.666;7.146;2023-03-01T16:30:13;8.53;;;5.13;;
5225;SDS011;2632;51.666;7.146;2023-03-01T16:32:42;8.33;;;5.00;;
5225;SDS011;2632;51.666;7.146;2023-03-01T16:35:11;10.10;;;5.67;;
5225;SDS011;2632;51.666;7.146;2023-03-01T16:37:39;9.93;;;5.20;;
5225;SDS011;2632;51.666;7.146;2023-03-01T16:40:14;11.33;;;6.17;;
5225;SDS011;2632;51.666;7.146;2023-03-01T16:42:44;8.83;;;5.77;;
5225;SDS011;2632;51.666;7.146;2023-03-01T16:45:10;8.67;;;5.20;;
5225;SDS011;2632;51.666;7.146;2023-03-01T16:47:49;11.77;;;6.50;;
5225;SDS011;2632;51.666;7.146;2023-03-01T16:50:16;9.03;;;5.63;;
5225;SDS011;2632;51.666;7.146;2023-03-01T16:52:42;10.63;;;5.53;;
5225;SDS011;2632;51.666;7.146;2023-03-01T16:55:09;10.70;;;5.90;;
5225;SDS011;2632;51.666;7.146;2023-03-01T16:57:37;11.63;;;6.50;;
5225;SDS011;2632;51.666;7.146;2023-03-01T17:00:04;10.83;;;6.20;;
5225;SDS011;2632;51.666;7.146;2023-03-01T17:02:34;13.53;;;6.17;;
5225;SDS011;2632;51.666;7.146;2023-03-01T17:05:01;11.13;;;6.37;;
5225;SDS011;2632;51.666;7.146;2023-03-01T17:07:30;11.77;;;7.20;;
5225;SDS011;2632;51.666;7.146;2023-03-01T17:10:00;14.93;;;6.63;;
5225;SDS011;2632;51.666;7.146;2023-03-01T17:12:28;13.30;;;7.30;;
5225;SDS011;2632;51.666;7.146;2023-03-01T17:14:54;24.10;;;11.20;;
5225;SDS011;2632;51.666;7.146;2023-03-01T17:17:21;17.70;;;7.83;;
5225;SDS011;2632;51.666;7.146;2023-03-01T17:19:48;13.43;;;7.27;;
5225;SDS011;2632;51.666;7.146;2023-03-01T17:22:14;15.90;;;6.37;;
5225;SDS011;2632;51.666;7.146;2023-03-01T17:24:42;13.93;;;7.83;;
5225;SDS011;2632;51.666;7.146;2023-03-01T17:27:10;13.63;;;7.53;;
5225;SDS011;2632;51.666;7.146;2023-03-01T17:29:38;15.43;;;9.30;;